ETMN

Nordholz Naval Airbase Airport

Cuxhaven, Germany
METAR ETMN 231420Z 09013KT 9999 FEW060 BKN260 24/05 Q1023 BLU+BLU+
Observed Flight Rules
May-23 @ 14:20 UTC (45 minutes ago) Visual Flight Rules
Wind Visibility Clouds
90° at 13 knots 10,000+ meters
  • Few at 6,000' AGL
  • Broken at 26,000' AGL
Temperatures Readings
Current 24°C / 75°F
Dewpoint 5°C / 41°F
Humidity 29%
Altimeter 30.21" Hg
Pressure 1023 hPa
Elevation 31
METAR ETMN 231420Z 09013KT 9999 FEW060 BKN260 24/05 Q1023 BLU+BLU+
Observed Flight Rules
May-23 @ 14:20 UTC
(45 minutes ago)
VFR
Wind Visibility
90° at 13 knots 10,000+ meters
Clouds
  • Few at 6,000' AGL
  • Broken at 26,000' AGL
Temperature Dewpoint
24°C / 75°F 5°C / 41°F
Humidity Altimeter Pressure
29% 30.21" Hg 1023 hPa